createdAt,value
2018-07-16T00:00:30.434Z,0.00
2018-07-16T00:01:30.445Z,0.00
2018-07-16T00:02:30.470Z,0.00
2018-07-16T00:03:30.501Z,0.00
2018-07-16T00:04:30.514Z,0.00
2018-07-16T00:05:30.539Z,0.00
2018-07-16T00:06:30.565Z,0.00
2018-07-16T00:07:30.594Z,0.00
2018-07-16T00:08:30.607Z,0.00
2018-07-16T00:09:30.631Z,0.00
2018-07-16T00:10:30.645Z,0.00
2018-07-16T00:11:30.667Z,0.00
2018-07-16T00:12:30.693Z,0.00
2018-07-16T00:13:30.711Z,0.00
2018-07-16T00:14:30.756Z,0.00
2018-07-16T00:15:30.759Z,0.00
2018-07-16T00:16:30.773Z,0.00
2018-07-16T00:17:30.800Z,0.00
2018-07-16T00:18:30.827Z,0.00
2018-07-16T00:19:30.844Z,0.00
2018-07-16T00:20:30.881Z,0.00
2018-07-16T00:21:30.888Z,0.00
2018-07-16T00:22:30.915Z,0.00
2018-07-16T00:23:30.932Z,0.00
2018-07-16T00:24:30.959Z,0.00
2018-07-16T00:25:30.991Z,0.00
2018-07-16T00:26:31.000Z,0.00
2018-07-16T00:27:31.036Z,0.00
2018-07-16T00:28:31.047Z,0.00
2018-07-16T00:29:31.065Z,0.00
2018-07-16T00:30:31.091Z,0.00
2018-07-16T00:31:31.113Z,0.00
2018-07-16T00:32:31.126Z,0.00
2018-07-16T00:33:31.153Z,0.00
2018-07-16T00:34:31.176Z,0.00
2018-07-16T00:35:31.195Z,0.00
2018-07-16T00:36:31.220Z,0.00
2018-07-16T00:37:31.244Z,0.00
2018-07-16T00:38:31.257Z,0.00
2018-07-16T00:39:31.287Z,0.00
2018-07-16T00:40:31.316Z,0.00
2018-07-16T00:41:31.628Z,0.00
2018-07-16T00:42:31.354Z,0.00
2018-07-16T00:43:31.373Z,0.00
2018-07-16T00:44:31.387Z,0.00
2018-07-16T00:45:31.412Z,0.00
2018-07-16T00:46:31.438Z,0.00
2018-07-16T00:47:31.459Z,0.00
2018-07-16T00:48:31.481Z,0.00
2018-07-16T00:49:31.510Z,0.00
2018-07-16T00:50:31.523Z,0.00
2018-07-16T00:51:31.545Z,0.00
2018-07-16T00:52:31.572Z,0.00
2018-07-16T00:53:31.587Z,0.00
2018-07-16T00:54:31.613Z,0.00
2018-07-16T00:55:31.622Z,0.00
2018-07-16T00:56:31.696Z,0.00
2018-07-16T00:57:31.686Z,0.00
2018-07-16T00:58:31.714Z,0.00
2018-07-16T00:59:31.721Z,0.00
2018-07-16T01:00:31.745Z,0.00
2018-07-16T01:01:31.755Z,0.00
2018-07-16T01:02:31.780Z,0.00
2018-07-16T01:03:31.814Z,0.00
2018-07-16T01:04:31.826Z,0.00
2018-07-16T01:05:31.851Z,0.00
2018-07-16T01:06:31.874Z,0.00
2018-07-16T01:07:31.884Z,0.00
2018-07-16T01:08:31.912Z,0.00
2018-07-16T01:09:31.941Z,0.00
2018-07-16T01:10:31.956Z,0.00
2018-07-16T01:11:31.979Z,0.00
2018-07-16T01:12:32.003Z,0.00
2018-07-16T01:13:32.013Z,0.00
2018-07-16T01:14:32.042Z,0.00
2018-07-16T01:15:32.060Z,0.00
2018-07-16T01:16:32.086Z,0.00
2018-07-16T01:17:32.106Z,0.00
2018-07-16T01:18:32.120Z,0.00
2018-07-16T01:19:32.150Z,0.00
2018-07-16T01:20:32.174Z,0.00
2018-07-16T01:21:32.191Z,0.00
2018-07-16T01:22:32.216Z,0.00
2018-07-16T01:23:32.239Z,0.00
2018-07-16T01:24:32.251Z,0.00
2018-07-16T01:25:32.280Z,0.00
2018-07-16T01:26:32.305Z,0.00
2018-07-16T01:27:32.315Z,0.00
2018-07-16T01:28:32.341Z,0.00
2018-07-16T01:29:32.357Z,0.00
2018-07-16T01:30:32.382Z,0.00
2018-07-16T01:31:32.427Z,0.00
2018-07-16T01:32:32.427Z,0.00
2018-07-16T01:33:32.448Z,0.00
2018-07-16T01:34:32.475Z,0.00
2018-07-16T01:35:32.491Z,0.00
2018-07-16T01:36:32.517Z,0.00
2018-07-16T01:37:32.541Z,0.00
2018-07-16T01:38:32.556Z,0.00
2018-07-16T01:39:32.577Z,0.00
2018-07-16T01:40:32.590Z,0.00
2018-07-16T01:41:32.622Z,0.00
2018-07-16T01:42:32.648Z,0.00
2018-07-16T01:43:32.660Z,0.00
2018-07-16T01:44:32.686Z,0.00
2018-07-16T01:45:32.707Z,0.00
2018-07-16T01:46:32.720Z,0.00
2018-07-16T01:47:32.750Z,0.00
2018-07-16T01:48:32.778Z,0.00
2018-07-16T01:49:32.789Z,0.00
2018-07-16T01:50:32.817Z,0.00
2018-07-16T01:51:32.844Z,0.00
2018-07-16T01:52:32.872Z,0.00
2018-07-16T01:53:32.881Z,0.00
2018-07-16T01:54:32.896Z,0.00
2018-07-16T01:55:32.917Z,0.00
2018-07-16T01:56:32.944Z,0.00
2018-07-16T01:57:32.963Z,0.00
2018-07-16T01:58:32.988Z,0.00
2018-07-16T01:59:32.998Z,0.00
2018-07-16T02:00:33.024Z,0.00
2018-07-16T02:01:33.048Z,0.00
2018-07-16T02:02:33.061Z,0.00
2018-07-16T02:03:33.091Z,0.00
2018-07-16T02:04:33.118Z,0.00
2018-07-16T02:05:33.127Z,0.00
2018-07-16T02:06:33.154Z,0.00
2018-07-16T02:07:33.170Z,0.00
2018-07-16T02:08:33.196Z,0.00
2018-07-16T02:09:33.224Z,0.00
2018-07-16T02:10:33.237Z,0.00
2018-07-16T02:11:33.259Z,0.00
2018-07-16T02:12:33.293Z,0.00
2018-07-16T02:13:33.300Z,0.00
2018-07-16T02:14:33.326Z,0.00
2018-07-16T02:15:33.348Z,0.00
2018-07-16T02:16:33.363Z,0.00
2018-07-16T02:17:33.391Z,4.00
2018-07-16T02:18:33.403Z,4.00
2018-07-16T02:19:33.434Z,4.00
2018-07-16T02:20:33.449Z,4.00
2018-07-16T02:21:33.470Z,4.00
2018-07-16T02:22:33.502Z,0.00
2018-07-16T02:23:33.512Z,4.00
2018-07-16T02:24:33.539Z,4.00
2018-07-16T02:25:33.563Z,4.00
2018-07-16T02:26:33.576Z,8.00
2018-07-16T02:27:33.599Z,4.00
2018-07-16T02:28:33.611Z,8.00
2018-07-16T02:29:33.643Z,8.00
2018-07-16T02:30:33.670Z,8.00
2018-07-16T02:31:33.679Z,12.00
2018-07-16T02:32:33.707Z,12.00
2018-07-16T02:33:33.729Z,12.00
2018-07-16T02:34:33.743Z,16.00
2018-07-16T02:35:33.777Z,16.00
2018-07-16T02:36:33.788Z,20.00
2018-07-16T02:37:33.809Z,20.00
2018-07-16T02:38:33.834Z,24.00
2018-07-16T02:39:33.852Z,28.00
2018-07-16T02:40:33.877Z,28.00
2018-07-16T02:41:33.896Z,32.00
2018-07-16T02:42:33.920Z,40.00
2018-07-16T02:43:33.930Z,44.00
2018-07-16T02:44:33.956Z,48.00
2018-07-16T02:45:33.986Z,56.00
2018-07-16T02:46:33.997Z,60.00
2018-07-16T02:47:34.018Z,68.00
2018-07-16T02:48:34.047Z,72.00
2018-07-16T02:49:34.061Z,80.00
2018-07-16T02:50:34.085Z,88.00
2018-07-16T02:51:34.105Z,96.00
2018-07-16T02:52:34.129Z,104.00
2018-07-16T02:53:34.155Z,116.00
2018-07-16T02:54:34.168Z,128.00
2018-07-16T02:55:34.190Z,140.00
2018-07-16T02:56:34.319Z,152.00
2018-07-16T02:57:34.228Z,164.00
2018-07-16T02:58:34.256Z,180.00
2018-07-16T02:59:34.271Z,196.00
2018-07-16T03:00:34.298Z,208.00
2018-07-16T03:01:34.310Z,228.00
2018-07-16T03:02:34.340Z,244.00
2018-07-16T03:03:34.365Z,260.00
2018-07-16T03:04:34.378Z,280.00
2018-07-16T03:05:34.402Z,300.00
2018-07-16T03:06:34.416Z,320.00
2018-07-16T03:07:34.437Z,340.00
2018-07-16T03:08:34.463Z,364.00
2018-07-16T03:09:34.480Z,384.00
2018-07-16T03:10:34.506Z,408.00
2018-07-16T03:11:34.517Z,432.00
2018-07-16T03:12:34.543Z,456.00
2018-07-16T03:13:34.570Z,480.00
2018-07-16T03:14:34.583Z,508.00
2018-07-16T03:15:34.613Z,536.00
2018-07-16T03:16:34.631Z,560.00
2018-07-16T03:17:34.654Z,592.00
2018-07-16T03:18:34.674Z,620.00
2018-07-16T03:19:34.703Z,648.00
2018-07-16T03:20:34.719Z,680.00
2018-07-16T03:21:34.733Z,712.00
2018-07-16T03:22:34.760Z,744.00
2018-07-16T03:23:34.780Z,772.00
2018-07-16T03:24:34.793Z,800.00
2018-07-16T03:25:34.823Z,820.00
2018-07-16T03:26:34.840Z,852.00
2018-07-16T03:27:34.860Z,880.00
2018-07-16T03:28:34.889Z,920.00
2018-07-16T03:29:34.895Z,964.00
2018-07-16T03:30:34.922Z,1004.00
2018-07-16T03:31:34.942Z,1052.00
2018-07-16T03:32:34.967Z,1096.00
2018-07-16T03:33:34.989Z,1148.00
2018-07-16T03:34:35.004Z,1204.00
2018-07-16T03:35:35.034Z,1260.00
2018-07-16T03:36:35.048Z,1316.00
2018-07-16T03:37:35.075Z,1368.00
2018-07-16T03:38:35.097Z,1416.00
2018-07-16T03:39:35.105Z,1460.00
2018-07-16T03:40:35.132Z,1504.00
2018-07-16T03:41:35.149Z,1552.00
2018-07-16T03:42:35.178Z,1596.00
2018-07-16T03:43:35.185Z,1636.00
2018-07-16T03:44:35.211Z,1676.00
2018-07-16T03:45:35.256Z,1708.00
2018-07-16T03:46:35.253Z,1748.00
2018-07-16T03:47:35.284Z,1788.00
2018-07-16T03:48:35.296Z,1824.00
2018-07-16T03:49:35.316Z,1868.00
2018-07-16T03:50:35.341Z,1904.00
2018-07-16T03:51:35.358Z,1948.00
2018-07-16T03:52:35.385Z,1988.00
2018-07-16T03:53:35.401Z,2028.00
2018-07-16T03:54:35.426Z,2068.00
2018-07-16T03:55:35.449Z,2108.00
2018-07-16T03:56:35.463Z,2148.00
2018-07-16T03:57:35.494Z,2188.00
2018-07-16T03:58:35.504Z,2228.00
2018-07-16T03:59:35.524Z,2268.00
2018-07-16T04:00:35.551Z,2308.00
2018-07-16T04:01:35.638Z,2348.00
2018-07-16T04:02:35.593Z,2388.00
2018-07-16T04:03:35.610Z,2424.00
2018-07-16T04:04:35.636Z,2464.00
2018-07-16T04:05:35.656Z,2500.00
2018-07-16T04:06:35.670Z,2540.00
2018-07-16T04:07:35.700Z,2580.00
2018-07-16T04:08:35.714Z,2612.00
2018-07-16T04:09:35.741Z,2644.00
2018-07-16T04:10:35.766Z,2680.00
2018-07-16T04:11:35.784Z,2708.00
2018-07-16T04:12:35.807Z,2732.00
2018-07-16T04:13:35.833Z,2760.00
2018-07-16T04:14:35.846Z,2784.00
2018-07-16T04:15:35.867Z,2812.00
2018-07-16T04:16:35.881Z,2844.00
2018-07-16T04:17:35.905Z,2872.00
2018-07-16T04:18:35.932Z,2916.00
2018-07-16T04:19:35.949Z,2952.00
2018-07-16T04:20:35.987Z,3000.00
2018-07-16T04:21:35.986Z,3048.00
2018-07-16T04:22:36.013Z,3096.00
2018-07-16T04:23:36.046Z,3144.00
2018-07-16T04:24:36.055Z,3192.00
2018-07-16T04:25:36.093Z,3236.00
2018-07-16T04:26:36.106Z,3280.00
2018-07-16T04:27:36.115Z,3316.00
2018-07-16T04:28:36.141Z,3352.00
2018-07-16T04:29:36.158Z,3380.00
2018-07-16T04:30:36.184Z,3408.00
2018-07-16T04:31:36.205Z,3436.00
2018-07-16T04:32:36.221Z,3464.00
2018-07-16T04:33:36.248Z,3488.00
2018-07-16T04:34:36.274Z,3512.00
2018-07-16T04:35:36.291Z,3544.00
2018-07-16T04:36:36.317Z,3572.00
2018-07-16T04:37:36.325Z,3604.00
2018-07-16T04:38:36.350Z,3632.00
2018-07-16T04:39:36.381Z,3644.00
2018-07-16T04:40:36.394Z,3660.00
2018-07-16T04:41:36.435Z,3668.00
2018-07-16T04:42:36.447Z,3676.00
2018-07-16T04:43:36.457Z,3696.00
2018-07-16T04:44:36.484Z,3720.00
2018-07-16T04:45:36.510Z,3748.00
2018-07-16T04:46:36.526Z,3776.00
2018-07-16T04:47:36.561Z,3816.00
2018-07-16T04:48:36.563Z,3848.00
2018-07-16T04:49:36.586Z,3876.00
2018-07-16T04:50:36.612Z,3896.00
2018-07-16T04:51:36.650Z,3920.00
2018-07-16T04:52:36.655Z,3952.00
2018-07-16T04:53:36.678Z,3980.00
2018-07-16T04:54:36.693Z,4020.00
2018-07-16T04:55:36.723Z,4052.00
2018-07-16T04:56:36.736Z,4080.00
2018-07-16T04:57:36.760Z,4112.00
2018-07-16T04:58:36.785Z,4144.00
2018-07-16T04:59:36.796Z,4168.00
2018-07-16T05:00:36.822Z,4196.00
2018-07-16T05:01:36.853Z,4216.00
2018-07-16T05:02:36.866Z,4236.00
2018-07-16T05:03:36.888Z,4260.00
2018-07-16T05:04:36.915Z,4288.00
2018-07-16T05:05:36.927Z,4316.00
2018-07-16T05:06:36.953Z,4348.00
2018-07-16T05:07:36.983Z,4380.00
2018-07-16T05:08:37.009Z,4416.00
2018-07-16T05:09:37.019Z,4448.00
2018-07-16T05:10:37.046Z,4488.00
2018-07-16T05:11:37.064Z,4528.00
2018-07-16T05:12:37.090Z,4556.00
2018-07-16T05:13:37.114Z,4588.00
2018-07-16T05:14:37.130Z,4636.00
2018-07-16T05:15:37.148Z,4692.00
2018-07-16T05:16:37.174Z,4708.00
2018-07-16T05:17:37.204Z,4732.00
2018-07-16T05:18:37.222Z,4868.00
2018-07-16T05:19:37.240Z,4896.00
2018-07-16T05:20:37.257Z,5064.00
2018-07-16T05:21:37.281Z,5120.00
2018-07-16T05:22:37.307Z,5212.00
2018-07-16T05:23:37.328Z,5524.00
2018-07-16T05:24:37.351Z,7152.00
2018-07-16T05:25:37.372Z,8944.00
2018-07-16T05:26:37.385Z,9548.00
2018-07-16T05:27:37.414Z,12364.00
2018-07-16T05:28:37.441Z,14436.00
2018-07-16T05:29:37.468Z,12296.00
2018-07-16T05:30:37.482Z,11256.00
2018-07-16T05:31:37.544Z,19968.00
2018-07-16T05:32:37.767Z,30208.00
2018-07-16T05:33:37.551Z,33024.00
2018-07-16T05:34:37.573Z,26240.00
2018-07-16T05:35:37.595Z,16512.00
2018-07-16T05:36:37.621Z,12432.00
2018-07-16T05:37:37.635Z,13984.00
2018-07-16T05:38:37.660Z,11916.00
2018-07-16T05:39:37.688Z,9504.00
2018-07-16T05:40:37.718Z,6792.00
2018-07-16T05:41:37.739Z,5756.00
2018-07-16T05:42:37.751Z,5632.00
2018-07-16T05:43:37.781Z,5500.00
2018-07-16T05:44:37.812Z,5600.00
2018-07-16T05:45:37.831Z,6420.00
2018-07-16T05:46:37.857Z,6516.00
2018-07-16T05:47:37.868Z,8672.00
2018-07-16T05:48:37.895Z,9672.00
2018-07-16T05:49:37.923Z,9688.00
2018-07-16T05:50:37.950Z,8484.00
2018-07-16T05:51:37.974Z,7456.00
2018-07-16T05:52:37.990Z,7000.00
2018-07-16T05:53:38.013Z,6932.00
2018-07-16T05:54:38.042Z,7184.00
2018-07-16T05:55:38.068Z,6464.00
2018-07-16T05:56:38.095Z,6248.00
2018-07-16T05:57:38.114Z,6628.00
2018-07-16T05:58:38.129Z,7960.00
2018-07-16T05:59:38.158Z,8004.00
2018-07-16T06:00:38.191Z,6956.00
2018-07-16T06:01:38.212Z,6344.00
2018-07-16T06:02:38.242Z,6404.00
2018-07-16T06:03:38.248Z,6748.00
2018-07-16T06:04:38.273Z,8080.00
2018-07-16T06:05:38.302Z,9456.00
2018-07-16T06:06:38.326Z,8852.00
2018-07-16T06:07:38.362Z,7836.00
2018-07-16T06:08:38.398Z,7232.00
2018-07-16T06:09:38.392Z,7636.00
2018-07-16T06:10:38.417Z,8340.00
2018-07-16T06:11:38.448Z,8148.00
2018-07-16T06:12:38.473Z,8076.00
2018-07-16T06:13:38.495Z,9024.00
2018-07-16T06:14:38.572Z,7580.00
2018-07-16T06:15:38.536Z,6684.00
2018-07-16T06:16:38.602Z,8872.00
2018-07-16T06:17:38.590Z,17888.00
2018-07-16T06:18:38.616Z,26080.00
2018-07-16T06:19:38.650Z,25504.00
2018-07-16T06:20:38.652Z,27488.00
2018-07-16T06:21:38.686Z,26400.00
2018-07-16T06:22:38.708Z,22912.00
2018-07-16T06:23:38.730Z,24480.00
2018-07-16T06:24:38.755Z,22720.00
2018-07-16T06:25:38.780Z,23040.00
2018-07-16T06:26:38.808Z,21664.00
2018-07-16T06:27:38.832Z,20128.00
2018-07-16T06:28:38.848Z,29184.00
2018-07-16T06:29:38.885Z,32672.00
2018-07-16T06:30:38.898Z,21440.00
2018-07-16T06:31:38.929Z,12952.00
2018-07-16T06:32:38.954Z,20768.00
2018-07-16T06:33:38.978Z,24256.00
2018-07-16T06:34:39.004Z,20512.00
2018-07-16T06:35:39.043Z,20992.00
2018-07-16T06:36:39.052Z,18048.00
2018-07-16T06:37:39.083Z,19424.00
2018-07-16T06:38:39.109Z,25856.00
2018-07-16T06:39:39.163Z,24896.00
2018-07-16T06:40:39.247Z,21440.00
2018-07-16T06:41:39.185Z,28384.00
2018-07-16T06:42:39.211Z,28736.00
2018-07-16T06:43:39.240Z,26848.00
2018-07-16T06:44:39.282Z,43808.00
2018-07-16T06:45:39.286Z,52256.00
2018-07-16T06:46:39.312Z,51456.00
2018-07-16T06:47:39.348Z,48704.00
2018-07-16T06:48:39.368Z,48736.00
2018-07-16T06:49:39.397Z,45728.00
2018-07-16T06:50:39.438Z,38112.00
2018-07-16T06:51:39.457Z,38272.00
2018-07-16T06:52:39.470Z,38752.00
2018-07-16T06:53:39.501Z,37216.00
2018-07-16T06:54:39.538Z,35456.00
2018-07-16T06:55:39.561Z,38368.00
2018-07-16T06:56:39.588Z,43744.00
2018-07-16T06:57:39.622Z,44256.00
2018-07-16T06:58:39.661Z,43712.00
2018-07-16T06:59:39.678Z,47168.00
2018-07-16T07:00:39.705Z,50336.00
2018-07-16T07:01:39.742Z,51008.00
2018-07-16T07:02:39.768Z,50752.00
2018-07-16T07:03:39.797Z,54112.00
2018-07-16T07:04:39.837Z,54816.00
2018-07-16T07:05:39.860Z,55616.00
2018-07-16T07:06:39.887Z,57696.00
2018-07-16T07:07:39.920Z,61568.00
2018-07-16T07:08:39.947Z,65344.00
2018-07-16T07:09:39.984Z,67488.00
2018-07-16T07:10:40.011Z,68608.00
2018-07-16T07:11:40.054Z,67520.00
2018-07-16T07:12:40.079Z,66464.00
2018-07-16T07:13:40.119Z,65216.00
2018-07-16T07:14:40.150Z,63872.00
2018-07-16T07:15:40.180Z,65664.00
2018-07-16T07:16:40.206Z,66112.00
2018-07-16T07:17:40.247Z,64704.00
2018-07-16T07:18:40.272Z,65536.00
2018-07-16T07:19:40.309Z,64768.00
2018-07-16T07:20:40.335Z,63808.00
2018-07-16T07:21:40.373Z,62336.00
2018-07-16T07:22:40.412Z,62688.00
2018-07-16T07:23:40.446Z,65248.00
2018-07-16T07:24:40.480Z,65536.00
2018-07-16T07:25:40.524Z,66240.00
2018-07-16T07:26:40.541Z,67008.00
2018-07-16T07:27:40.583Z,65696.00
2018-07-16T07:28:40.609Z,65920.00
2018-07-16T07:29:40.646Z,66304.00
2018-07-16T07:30:40.684Z,66688.00
2018-07-16T07:31:40.706Z,67488.00
2018-07-16T07:32:40.745Z,69728.00
2018-07-16T07:33:40.803Z,69472.00
2018-07-16T07:34:40.815Z,69312.00
2018-07-16T07:35:40.902Z,70080.00
2018-07-16T07:36:40.888Z,70912.00
2018-07-16T07:37:40.917Z,69728.00
2018-07-16T07:38:40.950Z,66080.00
2018-07-16T07:39:40.992Z,65440.00
2018-07-16T07:40:41.034Z,67008.00
2018-07-16T07:41:41.054Z,66080.00
2018-07-16T07:42:41.094Z,62944.00
2018-07-16T07:43:41.134Z,63840.00
2018-07-16T07:44:41.172Z,64992.00
2018-07-16T07:45:41.201Z,65120.00
2018-07-16T07:46:41.241Z,65792.00
2018-07-16T07:47:41.325Z,66528.00
2018-07-16T07:48:41.315Z,66112.00
2018-07-16T07:49:41.340Z,66176.00
2018-07-16T07:50:41.379Z,66976.00
2018-07-16T07:51:41.412Z,68000.00
2018-07-16T07:52:41.451Z,68032.00
2018-07-16T07:53:41.492Z,68832.00
2018-07-16T07:54:41.754Z,70912.00
2018-07-16T07:55:41.615Z,71520.00
2018-07-16T07:56:41.599Z,71648.00
2018-07-16T07:57:41.633Z,72288.00
2018-07-16T07:58:41.673Z,73664.00
2018-07-16T07:59:41.714Z,73216.00
2018-07-16T08:00:41.741Z,71584.00
2018-07-16T08:01:41.778Z,71200.00
2018-07-16T08:02:41.815Z,71744.00
2018-07-16T08:03:41.850Z,69856.00
2018-07-16T08:04:41.889Z,68704.00
2018-07-16T08:05:41.934Z,69792.00
2018-07-16T08:06:41.971Z,70240.00
2018-07-16T08:07:42.006Z,69696.00
2018-07-16T08:08:42.099Z,69856.00
2018-07-16T08:09:42.068Z,71456.00
2018-07-16T08:10:42.107Z,69984.00
2018-07-16T08:11:42.151Z,70944.00
2018-07-16T08:12:42.189Z,73856.00
2018-07-16T08:13:42.285Z,74368.00
2018-07-16T08:14:42.263Z,75904.00
2018-07-16T08:15:42.306Z,75360.00
2018-07-16T08:16:42.344Z,76064.00
2018-07-16T08:17:42.379Z,77344.00
2018-07-16T08:18:42.419Z,78496.00
2018-07-16T08:19:42.465Z,78848.00
2018-07-16T08:20:42.492Z,74464.00
2018-07-16T08:21:42.535Z,70976.00
2018-07-16T08:22:42.577Z,72192.00
2018-07-16T08:23:42.626Z,74016.00
2018-07-16T08:24:42.647Z,73056.00
2018-07-16T08:25:42.684Z,71456.00
2018-07-16T08:26:42.722Z,69632.00
2018-07-16T08:27:42.770Z,68672.00
2018-07-16T08:28:42.803Z,72064.00
2018-07-16T08:29:42.840Z,73024.00
2018-07-16T08:30:42.880Z,71520.00
2018-07-16T08:31:42.917Z,72160.00
2018-07-16T08:32:42.959Z,72608.00
2018-07-16T08:33:43.043Z,70880.00
2018-07-16T08:34:43.036Z,70560.00
2018-07-16T08:35:43.069Z,73696.00
2018-07-16T08:36:43.112Z,75136.00
2018-07-16T08:37:43.149Z,75328.00
2018-07-16T08:38:43.200Z,78048.00
2018-07-16T08:39:43.222Z,80736.00
2018-07-16T08:40:43.272Z,80640.00
2018-07-16T08:41:43.313Z,79168.00
2018-07-16T08:42:43.351Z,77248.00
2018-07-16T08:43:43.395Z,77184.00
2018-07-16T08:44:43.445Z,76416.00
2018-07-16T08:45:43.470Z,79904.00
2018-07-16T08:46:43.508Z,22208.00
2018-07-16T08:47:43.548Z,59328.00
2018-07-16T08:48:43.587Z,80032.00
2018-07-16T08:49:43.624Z,77568.00
2018-07-16T08:50:43.662Z,77728.00
2018-07-16T08:51:43.696Z,79264.00
2018-07-16T08:52:43.823Z,80448.00
2018-07-16T08:53:43.791Z,80448.00
2018-07-16T08:54:43.830Z,81568.00
2018-07-16T08:55:43.864Z,82336.00
2018-07-16T08:56:43.903Z,80928.00
2018-07-16T08:57:43.940Z,82784.00
2018-07-16T08:58:43.980Z,87072.00
2018-07-16T08:59:44.033Z,88320.00
2018-07-16T09:00:44.061Z,90432.00
2018-07-16T09:01:44.094Z,93696.00
2018-07-16T09:02:44.134Z,91392.00
2018-07-16T09:03:44.174Z,90048.00
2018-07-16T09:04:44.232Z,89088.00
2018-07-16T09:05:44.266Z,89408.00
2018-07-16T09:06:44.304Z,91424.00
2018-07-16T09:07:44.339Z,92512.00
2018-07-16T09:08:44.376Z,91904.00
2018-07-16T09:09:44.417Z,90880.00
2018-07-16T09:10:44.470Z,92320.00
2018-07-16T09:11:44.490Z,89600.00
2018-07-16T09:12:44.527Z,86336.00
2018-07-16T09:13:44.570Z,82016.00
2018-07-16T09:14:44.608Z,83616.00
2018-07-16T09:15:44.651Z,88992.00
2018-07-16T09:16:44.692Z,93024.00
2018-07-16T09:17:44.727Z,93216.00
2018-07-16T09:18:44.766Z,92064.00
2018-07-16T09:19:44.812Z,92448.00
2018-07-16T09:20:44.851Z,93440.00
2018-07-16T09:21:44.887Z,92800.00
2018-07-16T09:22:44.925Z,90336.00
2018-07-16T09:23:44.968Z,90592.00
2018-07-16T09:24:45.008Z,94496.00
2018-07-16T09:25:45.044Z,96224.00
2018-07-16T09:26:45.083Z,97728.00
2018-07-16T09:27:45.125Z,95744.00
2018-07-16T09:28:45.163Z,91808.00
2018-07-16T09:29:45.199Z,90048.00
2018-07-16T09:30:45.237Z,93984.00
2018-07-16T09:31:45.271Z,93888.00
2018-07-16T09:32:45.364Z,91008.00
2018-07-16T09:33:45.352Z,90848.00
2018-07-16T09:34:45.403Z,92928.00
2018-07-16T09:35:45.438Z,94816.00
2018-07-16T09:36:45.476Z,94496.00
2018-07-16T09:37:45.519Z,92160.00
2018-07-16T09:38:45.555Z,91680.00
2018-07-16T09:39:45.599Z,89664.00
2018-07-16T09:40:45.637Z,93856.00
2018-07-16T09:41:45.670Z,97248.00
2018-07-16T09:42:45.707Z,97984.00
2018-07-16T09:43:45.750Z,96448.00
2018-07-16T09:44:45.788Z,96064.00
2018-07-16T09:45:45.831Z,92000.00
2018-07-16T09:46:45.883Z,91488.00
2018-07-16T09:47:45.917Z,96704.00
2018-07-16T09:48:45.956Z,96512.00
2018-07-16T09:49:46.008Z,94400.00
2018-07-16T09:50:46.033Z,93280.00
2018-07-16T09:51:46.067Z,92960.00
2018-07-16T09:52:46.118Z,94688.00
2018-07-16T09:53:46.155Z,92256.00
2018-07-16T09:54:46.193Z,91008.00
2018-07-16T09:55:46.238Z,87136.00
2018-07-16T09:56:46.276Z,88064.00
2018-07-16T09:57:46.323Z,87232.00
2018-07-16T09:58:46.362Z,49696.00
2018-07-16T09:59:46.406Z,30368.00
2018-07-16T10:00:46.443Z,84000.00
2018-07-16T10:01:46.479Z,85792.00
2018-07-16T10:02:46.531Z,92608.00
2018-07-16T10:03:46.565Z,95936.00
2018-07-16T10:04:46.604Z,94400.00
2018-07-16T10:05:46.646Z,93920.00
2018-07-16T10:06:46.685Z,92832.00
2018-07-16T10:07:46.731Z,92512.00
2018-07-16T10:08:46.770Z,91872.00
2018-07-16T10:09:46.859Z,95488.00
2018-07-16T10:10:46.851Z,95680.00
2018-07-16T10:11:46.906Z,95488.00
2018-07-16T10:12:46.946Z,95200.00
2018-07-16T10:13:46.975Z,94656.00
2018-07-16T10:14:47.026Z,96192.00
2018-07-16T10:15:47.068Z,96896.00
2018-07-16T10:16:47.106Z,97184.00
2018-07-16T10:17:47.147Z,95488.00
2018-07-16T10:18:47.213Z,93312.00
2018-07-16T10:19:47.233Z,93376.00
2018-07-16T10:20:47.271Z,95680.00
2018-07-16T10:21:47.324Z,98048.00
2018-07-16T10:22:47.365Z,96896.00
2018-07-16T10:23:47.401Z,94976.00
2018-07-16T10:24:47.465Z,93696.00
2018-07-16T10:25:47.540Z,93600.00
2018-07-16T10:26:47.540Z,89312.00
2018-07-16T10:27:47.582Z,87008.00
2018-07-16T10:28:47.621Z,87488.00
2018-07-16T10:29:47.667Z,88032.00
2018-07-16T10:30:48.053Z,89120.00
2018-07-16T10:31:47.759Z,86144.00
2018-07-16T10:32:47.798Z,92704.00
2018-07-16T10:33:48.070Z,54208.00
2018-07-16T10:34:47.890Z,90816.00
2018-07-16T10:35:47.925Z,86624.00
2018-07-16T10:36:47.975Z,85824.00
2018-07-16T10:37:48.017Z,87296.00
2018-07-16T10:38:48.056Z,86144.00
2018-07-16T10:39:48.103Z,86176.00
2018-07-16T10:40:48.143Z,85600.00
2018-07-16T10:41:48.190Z,84544.00
2018-07-16T10:42:48.231Z,85152.00
2018-07-16T10:43:48.270Z,87968.00
2018-07-16T10:44:48.321Z,90560.00
2018-07-16T10:45:48.358Z,90848.00
2018-07-16T10:46:48.410Z,92096.00
2018-07-16T10:47:48.452Z,90752.00
2018-07-16T10:48:48.490Z,90272.00
2018-07-16T10:50:48.577Z,96704.00
2018-07-16T10:51:48.641Z,96448.00
2018-07-16T10:52:48.665Z,96448.00
2018-07-16T10:53:48.701Z,98048.00
2018-07-16T10:54:48.760Z,99968.00
2018-07-16T10:55:48.795Z,98720.00
2018-07-16T10:56:48.845Z,96032.00
2018-07-16T10:57:48.879Z,95616.00
2018-07-16T10:58:48.966Z,95264.00
2018-07-16T10:59:48.971Z,92960.00
2018-07-16T11:00:49.013Z,91904.00
2018-07-16T11:01:49.064Z,92608.00
2018-07-16T11:02:49.097Z,95168.00
2018-07-16T11:03:49.148Z,95552.00
2018-07-16T11:04:49.190Z,93920.00
2018-07-16T11:05:49.229Z,91104.00
2018-07-16T11:06:49.300Z,87520.00
2018-07-16T11:07:49.320Z,85728.00
2018-07-16T11:08:49.367Z,88672.00
2018-07-16T11:09:49.407Z,89792.00
2018-07-16T11:10:49.462Z,88864.00
2018-07-16T11:11:49.499Z,91904.00
2018-07-16T11:12:49.546Z,94688.00
2018-07-16T11:13:49.585Z,97024.00
2018-07-16T11:14:49.644Z,97248.00
2018-07-16T11:15:49.672Z,96224.00
2018-07-16T11:16:49.715Z,94208.00
2018-07-16T11:17:49.766Z,94816.00
2018-07-16T11:18:49.801Z,95360.00
2018-07-16T11:19:49.852Z,93792.00
2018-07-16T11:20:50.131Z,73600.00
2018-07-16T11:21:49.948Z,96800.00
2018-07-16T11:22:49.983Z,92224.00
2018-07-16T11:23:50.034Z,25728.00
2018-07-16T11:24:50.068Z,23488.00
2018-07-16T11:25:50.120Z,20992.00
2018-07-16T11:26:50.157Z,92416.00
2018-07-16T11:27:50.208Z,92352.00
2018-07-16T11:28:50.251Z,91776.00
2018-07-16T11:29:50.302Z,92512.00
2018-07-16T11:30:50.342Z,93312.00
2018-07-16T11:31:50.382Z,90720.00
2018-07-16T11:32:50.428Z,89824.00
2018-07-16T11:33:50.466Z,90816.00
2018-07-16T11:34:50.520Z,91712.00
2018-07-16T11:35:50.646Z,92320.00
2018-07-16T11:36:50.605Z,92320.00
2018-07-16T11:37:50.691Z,92000.00
2018-07-16T11:38:50.685Z,91584.00
2018-07-16T11:39:50.735Z,91136.00
2018-07-16T11:40:50.790Z,89888.00
2018-07-16T11:41:50.840Z,90848.00
2018-07-16T11:42:50.862Z,91520.00
2018-07-16T11:43:50.914Z,89920.00
2018-07-16T11:44:50.956Z,87520.00
2018-07-16T11:45:50.996Z,87872.00
2018-07-16T11:46:51.044Z,88544.00
2018-07-16T11:47:51.082Z,55488.00
2018-07-16T11:48:51.129Z,41952.00
2018-07-16T11:49:51.167Z,58464.00
2018-07-16T11:50:51.225Z,88096.00
2018-07-16T11:51:51.263Z,90976.00
2018-07-16T11:52:51.309Z,87520.00
2018-07-16T11:53:51.351Z,86784.00
2018-07-16T11:54:51.385Z,87872.00
2018-07-16T11:55:51.436Z,87968.00
2018-07-16T11:56:51.479Z,88256.00
2018-07-16T11:57:51.528Z,89792.00
2018-07-16T11:58:51.568Z,91808.00
2018-07-16T11:59:51.603Z,92928.00
2018-07-16T12:00:51.657Z,92448.00
2018-07-16T12:01:51.703Z,91072.00
2018-07-16T12:02:51.748Z,89632.00
2018-07-16T12:03:51.787Z,91232.00
2018-07-16T12:04:51.822Z,93376.00
2018-07-16T12:05:51.872Z,93280.00
2018-07-16T12:06:51.913Z,90112.00
2018-07-16T12:07:51.966Z,88608.00
2018-07-16T12:08:51.998Z,88736.00
2018-07-16T12:09:52.051Z,89984.00
2018-07-16T12:10:52.091Z,90752.00
2018-07-16T12:11:52.129Z,90304.00